sensor_id;sensor_type;location;lat;lon;timestamp;P1;durP1;ratioP1;P2;durP2;ratioP2
41436;SDS011;27178;49.460;10.850;2023-02-01T00:01:22;3.43;;;3.13;;
41436;SDS011;27178;49.460;10.850;2023-02-01T00:03:51;3.83;;;3.53;;
41436;SDS011;27178;49.460;10.850;2023-02-01T00:06:19;4.30;;;3.70;;
41436;SDS011;27178;49.460;10.850;2023-02-01T00:08:48;4.17;;;3.30;;
41436;SDS011;27178;49.460;10.850;2023-02-01T00:11:16;4.10;;;3.70;;
41436;SDS011;27178;49.460;10.850;2023-02-01T00:13:44;3.53;;;3.03;;
41436;SDS011;27178;49.460;10.850;2023-02-01T00:16:14;4.13;;;3.63;;
41436;SDS011;27178;49.460;10.850;2023-02-01T00:18:44;4.17;;;3.70;;
41436;SDS011;27178;49.460;10.850;2023-02-01T00:21:14;4.33;;;3.90;;
41436;SDS011;27178;49.460;10.850;2023-02-01T00:23:44;4.07;;;3.23;;
41436;SDS011;27178;49.460;10.850;2023-02-01T00:26:14;4.60;;;3.60;;
41436;SDS011;27178;49.460;10.850;2023-02-01T00:28:44;3.90;;;3.60;;
41436;SDS011;27178;49.460;10.850;2023-02-01T00:31:13;3.77;;;3.23;;
41436;SDS011;27178;49.460;10.850;2023-02-01T00:33:42;3.60;;;3.30;;
41436;SDS011;27178;49.460;10.850;2023-02-01T00:36:13;3.27;;;3.07;;
41436;SDS011;27178;49.460;10.850;2023-02-01T00:38:42;6.43;;;4.00;;
41436;SDS011;27178;49.460;10.850;2023-02-01T00:41:11;3.87;;;3.57;;
41436;SDS011;27178;49.460;10.850;2023-02-01T00:43:41;3.60;;;3.30;;
41436;SDS011;27178;49.460;10.850;2023-02-01T00:46:11;3.50;;;3.03;;
41436;SDS011;27178;49.460;10.850;2023-02-01T00:48:42;4.03;;;3.73;;
41436;SDS011;27178;49.460;10.850;2023-02-01T00:51:11;3.60;;;3.30;;
41436;SDS011;27178;49.460;10.850;2023-02-01T00:53:41;4.60;;;3.07;;
41436;SDS011;27178;49.460;10.850;2023-02-01T00:56:10;3.60;;;3.30;;
41436;SDS011;27178;49.460;10.850;2023-02-01T00:58:38;3.57;;;3.27;;
41436;SDS011;27178;49.460;10.850;2023-02-01T01:01:11;3.43;;;3.13;;
41436;SDS011;27178;49.460;10.850;2023-02-01T01:03:43;4.07;;;3.67;;
41436;SDS011;27178;49.460;10.850;2023-02-01T01:06:13;3.50;;;3.20;;
41436;SDS011;27178;49.460;10.850;2023-02-01T01:08:43;3.23;;;2.93;;
41436;SDS011;27178;49.460;10.850;2023-02-01T01:11:13;3.37;;;3.07;;
41436;SDS011;27178;49.460;10.850;2023-02-01T01:13:45;3.60;;;3.30;;
41436;SDS011;27178;49.460;10.850;2023-02-01T01:16:14;3.93;;;3.50;;
41436;SDS011;27178;49.460;10.850;2023-02-01T01:18:44;3.43;;;3.13;;
41436;SDS011;27178;49.460;10.850;2023-02-01T01:21:13;4.33;;;3.67;;
41436;SDS011;27178;49.460;10.850;2023-02-01T01:23:43;3.80;;;3.50;;
41436;SDS011;27178;49.460;10.850;2023-02-01T01:26:13;3.47;;;3.17;;
41436;SDS011;27178;49.460;10.850;2023-02-01T01:28:43;3.50;;;3.20;;
41436;SDS011;27178;49.460;10.850;2023-02-01T01:31:12;3.57;;;3.27;;
41436;SDS011;27178;49.460;10.850;2023-02-01T01:33:42;4.00;;;3.67;;
41436;SDS011;27178;49.460;10.850;2023-02-01T01:36:15;3.37;;;3.10;;
41436;SDS011;27178;49.460;10.850;2023-02-01T01:38:44;4.63;;;3.73;;
41436;SDS011;27178;49.460;10.850;2023-02-01T01:41:13;3.30;;;2.83;;
41436;SDS011;27178;49.460;10.850;2023-02-01T01:43:47;3.77;;;3.33;;
41436;SDS011;27178;49.460;10.850;2023-02-01T01:46:24;3.47;;;3.17;;
41436;SDS011;27178;49.460;10.850;2023-02-01T01:48:58;3.50;;;3.20;;
41436;SDS011;27178;49.460;10.850;2023-02-01T01:51:31;4.03;;;3.03;;
41436;SDS011;27178;49.460;10.850;2023-02-01T01:54:12;3.20;;;2.90;;
41436;SDS011;27178;49.460;10.850;2023-02-01T01:56:44;3.70;;;3.40;;
41436;SDS011;27178;49.460;10.850;2023-02-01T01:59:17;3.00;;;2.70;;
41436;SDS011;27178;49.460;10.850;2023-02-01T02:01:45;2.80;;;2.60;;
41436;SDS011;27178;49.460;10.850;2023-02-01T02:04:16;3.50;;;3.17;;
41436;SDS011;27178;49.460;10.850;2023-02-01T02:06:45;3.80;;;3.47;;
41436;SDS011;27178;49.460;10.850;2023-02-01T02:09:18;3.40;;;2.87;;
41436;SDS011;27178;49.460;10.850;2023-02-01T02:11:47;3.20;;;3.00;;
41436;SDS011;27178;49.460;10.850;2023-02-01T02:14:16;3.33;;;3.03;;
41436;SDS011;27178;49.460;10.850;2023-02-01T02:16:50;2.90;;;2.70;;
41436;SDS011;27178;49.460;10.850;2023-02-01T02:22:48;3.10;;;2.80;;
41436;SDS011;27178;49.460;10.850;2023-02-01T02:28:33;3.17;;;2.90;;
41436;SDS011;27178;49.460;10.850;2023-02-01T02:31:40;3.47;;;3.17;;
41436;SDS011;27178;49.460;10.850;2023-02-01T02:34:23;3.40;;;3.10;;
41436;SDS011;27178;49.460;10.850;2023-02-01T02:36:59;3.53;;;3.17;;
41436;SDS011;27178;49.460;10.850;2023-02-01T02:39:39;3.33;;;3.03;;
41436;SDS011;27178;49.460;10.850;2023-02-01T02:42:20;3.50;;;3.07;;
41436;SDS011;27178;49.460;10.850;2023-02-01T02:45:25;3.50;;;3.20;;
41436;SDS011;27178;49.460;10.850;2023-02-01T02:48:19;3.40;;;3.10;;
41436;SDS011;27178;49.460;10.850;2023-02-01T02:50:53;3.50;;;3.20;;
41436;SDS011;27178;49.460;10.850;2023-02-01T02:53:48;3.30;;;3.00;;
41436;SDS011;27178;49.460;10.850;2023-02-01T02:56:38;3.20;;;2.90;;
41436;SDS011;27178;49.460;10.850;2023-02-01T02:59:25;4.13;;;3.57;;
41436;SDS011;27178;49.460;10.850;2023-02-01T03:02:13;3.47;;;2.87;;
41436;SDS011;27178;49.460;10.850;2023-02-01T03:05:00;3.47;;;3.20;;
41436;SDS011;27178;49.460;10.850;2023-02-01T03:10:42;3.30;;;3.00;;
41436;SDS011;27178;49.460;10.850;2023-02-01T03:13:17;3.47;;;3.17;;
41436;SDS011;27178;49.460;10.850;2023-02-01T03:15:54;3.63;;;3.20;;
41436;SDS011;27178;49.460;10.850;2023-02-01T03:18:30;3.40;;;3.13;;
41436;SDS011;27178;49.460;10.850;2023-02-01T03:21:06;3.67;;;3.37;;
41436;SDS011;27178;49.460;10.850;2023-02-01T03:23:39;3.83;;;3.53;;
41436;SDS011;27178;49.460;10.850;2023-02-01T03:26:09;3.93;;;3.63;;
41436;SDS011;27178;49.460;10.850;2023-02-01T03:28:42;3.80;;;3.47;;
41436;SDS011;27178;49.460;10.850;2023-02-01T03:31:13;3.97;;;3.67;;
41436;SDS011;27178;49.460;10.850;2023-02-01T03:33:42;3.93;;;3.63;;
41436;SDS011;27178;49.460;10.850;2023-02-01T03:36:15;3.40;;;3.20;;
41436;SDS011;27178;49.460;10.850;2023-02-01T03:38:52;3.77;;;3.43;;
41436;SDS011;27178;49.460;10.850;2023-02-01T03:41:27;3.77;;;3.47;;
41436;SDS011;27178;49.460;10.850;2023-02-01T03:44:04;3.97;;;3.63;;
41436;SDS011;27178;49.460;10.850;2023-02-01T03:46:39;4.53;;;3.90;;
41436;SDS011;27178;49.460;10.850;2023-02-01T03:49:13;4.50;;;4.10;;
41436;SDS011;27178;49.460;10.850;2023-02-01T03:51:48;4.17;;;3.77;;
41436;SDS011;27178;49.460;10.850;2023-02-01T03:54:20;4.30;;;4.00;;
41436;SDS011;27178;49.460;10.850;2023-02-01T03:56:48;4.03;;;3.67;;
41436;SDS011;27178;49.460;10.850;2023-02-01T03:59:20;4.10;;;3.80;;
41436;SDS011;27178;49.460;10.850;2023-02-01T04:01:48;4.30;;;3.90;;
41436;SDS011;27178;49.460;10.850;2023-02-01T04:04:16;7.00;;;3.90;;
41436;SDS011;27178;49.460;10.850;2023-02-01T04:06:47;4.83;;;4.03;;
41436;SDS011;27178;49.460;10.850;2023-02-01T04:09:16;4.57;;;4.17;;
41436;SDS011;27178;49.460;10.850;2023-02-01T04:11:46;5.53;;;4.30;;
41436;SDS011;27178;49.460;10.850;2023-02-01T04:14:14;4.57;;;4.17;;
41436;SDS011;27178;49.460;10.850;2023-02-01T04:16:43;4.80;;;4.10;;
41436;SDS011;27178;49.460;10.850;2023-02-01T04:19:12;4.13;;;3.83;;
41436;SDS011;27178;49.460;10.850;2023-02-01T04:21:40;3.87;;;3.50;;
41436;SDS011;27178;49.460;10.850;2023-02-01T04:24:08;4.77;;;4.37;;
41436;SDS011;27178;49.460;10.850;2023-02-01T04:26:37;4.03;;;3.63;;
41436;SDS011;27178;49.460;10.850;2023-02-01T04:29:07;4.13;;;3.70;;
41436;SDS011;27178;49.460;10.850;2023-02-01T04:31:36;5.67;;;3.80;;
41436;SDS011;27178;49.460;10.850;2023-02-01T04:34:05;4.40;;;4.00;;
41436;SDS011;27178;49.460;10.850;2023-02-01T04:36:33;4.30;;;3.90;;
41436;SDS011;27178;49.460;10.850;2023-02-01T04:39:01;4.50;;;4.10;;
41436;SDS011;27178;49.460;10.850;2023-02-01T04:41:30;3.77;;;3.40;;
41436;SDS011;27178;49.460;10.850;2023-02-01T04:43:58;4.50;;;3.77;;
41436;SDS011;27178;49.460;10.850;2023-02-01T04:46:28;4.17;;;3.70;;
41436;SDS011;27178;49.460;10.850;2023-02-01T04:48:56;3.80;;;3.50;;
41436;SDS011;27178;49.460;10.850;2023-02-01T04:51:25;4.37;;;3.97;;
41436;SDS011;27178;49.460;10.850;2023-02-01T04:53:53;4.37;;;4.03;;
41436;SDS011;27178;49.460;10.850;2023-02-01T04:56:26;4.40;;;4.00;;
41436;SDS011;27178;49.460;10.850;2023-02-01T04:58:54;4.60;;;4.20;;
41436;SDS011;27178;49.460;10.850;2023-02-01T05:01:22;3.90;;;3.60;;
41436;SDS011;27178;49.460;10.850;2023-02-01T05:03:53;4.43;;;4.03;;
41436;SDS011;27178;49.460;10.850;2023-02-01T05:06:22;4.87;;;4.47;;
41436;SDS011;27178;49.460;10.850;2023-02-01T05:08:50;5.17;;;4.40;;
41436;SDS011;27178;49.460;10.850;2023-02-01T05:11:18;4.23;;;3.90;;
41436;SDS011;27178;49.460;10.850;2023-02-01T05:14:12;5.40;;;3.87;;
41436;SDS011;27178;49.460;10.850;2023-02-01T05:16:41;4.10;;;3.80;;
41436;SDS011;27178;49.460;10.850;2023-02-01T05:19:10;4.20;;;3.80;;
41436;SDS011;27178;49.460;10.850;2023-02-01T05:21:39;4.17;;;3.70;;
41436;SDS011;27178;49.460;10.850;2023-02-01T05:24:08;4.30;;;3.90;;
41436;SDS011;27178;49.460;10.850;2023-02-01T05:26:46;4.47;;;4.07;;
41436;SDS011;27178;49.460;10.850;2023-02-01T05:29:15;4.40;;;4.00;;
41436;SDS011;27178;49.460;10.850;2023-02-01T05:31:44;4.33;;;3.93;;
41436;SDS011;27178;49.460;10.850;2023-02-01T05:34:17;4.07;;;3.77;;
41436;SDS011;27178;49.460;10.850;2023-02-01T05:36:46;5.03;;;4.53;;
41436;SDS011;27178;49.460;10.850;2023-02-01T05:39:14;4.73;;;4.30;;
41436;SDS011;27178;49.460;10.850;2023-02-01T05:41:42;4.93;;;4.53;;
41436;SDS011;27178;49.460;10.850;2023-02-01T05:44:11;5.47;;;4.97;;
41436;SDS011;27178;49.460;10.850;2023-02-01T05:46:39;4.53;;;4.13;;
41436;SDS011;27178;49.460;10.850;2023-02-01T05:49:08;4.50;;;4.10;;
41436;SDS011;27178;49.460;10.850;2023-02-01T05:51:37;3.50;;;3.20;;
41436;SDS011;27178;49.460;10.850;2023-02-01T05:54:07;3.80;;;3.50;;
41436;SDS011;27178;49.460;10.850;2023-02-01T05:56:36;3.53;;;3.23;;
41436;SDS011;27178;49.460;10.850;2023-02-01T05:59:04;4.07;;;2.97;;
41436;SDS011;27178;49.460;10.850;2023-02-01T06:01:32;2.90;;;2.70;;
41436;SDS011;27178;49.460;10.850;2023-02-01T06:04:01;3.13;;;2.93;;
41436;SDS011;27178;49.460;10.850;2023-02-01T06:06:29;3.00;;;2.70;;
41436;SDS011;27178;49.460;10.850;2023-02-01T06:08:59;2.80;;;2.17;;
41436;SDS011;27178;49.460;10.850;2023-02-01T06:11:28;2.27;;;2.07;;
41436;SDS011;27178;49.460;10.850;2023-02-01T06:13:58;3.60;;;2.83;;
41436;SDS011;27178;49.460;10.850;2023-02-01T06:16:26;2.80;;;2.60;;
41436;SDS011;27178;49.460;10.850;2023-02-01T06:18:55;2.20;;;2.00;;
41436;SDS011;27178;49.460;10.850;2023-02-01T06:21:23;1.70;;;1.60;;
41436;SDS011;27178;49.460;10.850;2023-02-01T06:23:51;1.57;;;1.47;;
41436;SDS011;27178;49.460;10.850;2023-02-01T06:26:22;1.60;;;1.50;;
41436;SDS011;27178;49.460;10.850;2023-02-01T06:28:51;1.20;;;1.17;;
41436;SDS011;27178;49.460;10.850;2023-02-01T06:31:19;1.33;;;1.23;;
41436;SDS011;27178;49.460;10.850;2023-02-01T06:33:48;1.03;;;1.03;;
41436;SDS011;27178;49.460;10.850;2023-02-01T06:36:16;1.33;;;1.23;;
41436;SDS011;27178;49.460;10.850;2023-02-01T06:38:47;1.23;;;1.13;;
41436;SDS011;27178;49.460;10.850;2023-02-01T06:41:16;1.33;;;1.20;;
41436;SDS011;27178;49.460;10.850;2023-02-01T06:43:48;1.00;;;1.00;;
41436;SDS011;27178;49.460;10.850;2023-02-01T06:46:17;1.60;;;1.50;;
41436;SDS011;27178;49.460;10.850;2023-02-01T06:48:45;1.40;;;1.30;;
41436;SDS011;27178;49.460;10.850;2023-02-01T06:51:24;1.73;;;1.30;;
41436;SDS011;27178;49.460;10.850;2023-02-01T06:53:53;1.63;;;1.53;;
41436;SDS011;27178;49.460;10.850;2023-02-01T06:56:22;2.20;;;1.73;;
41436;SDS011;27178;49.460;10.850;2023-02-01T06:58:52;1.47;;;1.37;;
41436;SDS011;27178;49.460;10.850;2023-02-01T07:01:20;1.60;;;1.50;;
41436;SDS011;27178;49.460;10.850;2023-02-01T07:03:49;1.93;;;1.60;;
41436;SDS011;27178;49.460;10.850;2023-02-01T07:06:18;1.57;;;1.47;;
41436;SDS011;27178;49.460;10.850;2023-02-01T07:08:47;1.63;;;1.53;;
41436;SDS011;27178;49.460;10.850;2023-02-01T07:11:17;1.80;;;1.70;;
41436;SDS011;27178;49.460;10.850;2023-02-01T07:13:46;1.80;;;1.70;;
41436;SDS011;27178;49.460;10.850;2023-02-01T07:16:16;1.70;;;1.60;;
41436;SDS011;27178;49.460;10.850;2023-02-01T07:18:46;1.90;;;1.70;;
41436;SDS011;27178;49.460;10.850;2023-02-01T07:21:15;2.37;;;1.80;;
41436;SDS011;27178;49.460;10.850;2023-02-01T07:23:43;2.77;;;1.90;;
41436;SDS011;27178;49.460;10.850;2023-02-01T07:26:13;2.33;;;2.10;;
41436;SDS011;27178;49.460;10.850;2023-02-01T07:28:42;2.10;;;1.90;;
41436;SDS011;27178;49.460;10.850;2023-02-01T07:31:11;1.70;;;1.60;;
41436;SDS011;27178;49.460;10.850;2023-02-01T07:33:42;2.00;;;1.80;;
41436;SDS011;27178;49.460;10.850;2023-02-01T07:36:11;1.77;;;1.67;;
41436;SDS011;27178;49.460;10.850;2023-02-01T07:38:41;1.83;;;1.73;;
41436;SDS011;27178;49.460;10.850;2023-02-01T07:41:10;2.10;;;1.90;;
41436;SDS011;27178;49.460;10.850;2023-02-01T07:43:38;2.27;;;2.07;;
41436;SDS011;27178;49.460;10.850;2023-02-01T07:46:07;1.97;;;1.77;;
41436;SDS011;27178;49.460;10.850;2023-02-01T07:48:35;3.00;;;2.20;;
41436;SDS011;27178;49.460;10.850;2023-02-01T07:51:05;1.83;;;1.67;;
41436;SDS011;27178;49.460;10.850;2023-02-01T07:53:36;2.70;;;1.87;;
41436;SDS011;27178;49.460;10.850;2023-02-01T07:56:09;2.83;;;2.03;;
41436;SDS011;27178;49.460;10.850;2023-02-01T07:58:39;2.27;;;1.83;;
41436;SDS011;27178;49.460;10.850;2023-02-01T08:01:13;3.23;;;2.17;;
41436;SDS011;27178;49.460;10.850;2023-02-01T08:03:47;3.43;;;2.03;;
41436;SDS011;27178;49.460;10.850;2023-02-01T08:06:18;2.17;;;1.90;;
41436;SDS011;27178;49.460;10.850;2023-02-01T08:08:47;2.27;;;1.70;;
41436;SDS011;27178;49.460;10.850;2023-02-01T08:11:17;2.43;;;1.80;;
41436;SDS011;27178;49.460;10.850;2023-02-01T08:13:46;2.17;;;1.80;;
41436;SDS011;27178;49.460;10.850;2023-02-01T08:16:16;2.23;;;2.00;;
41436;SDS011;27178;49.460;10.850;2023-02-01T08:18:45;1.57;;;1.47;;
41436;SDS011;27178;49.460;10.850;2023-02-01T08:21:15;2.10;;;1.90;;
41436;SDS011;27178;49.460;10.850;2023-02-01T08:23:46;2.87;;;1.97;;
41436;SDS011;27178;49.460;10.850;2023-02-01T08:26:15;2.67;;;1.70;;
41436;SDS011;27178;49.460;10.850;2023-02-01T08:28:46;2.83;;;1.67;;
41436;SDS011;27178;49.460;10.850;2023-02-01T08:31:16;2.37;;;1.87;;
41436;SDS011;27178;49.460;10.850;2023-02-01T08:33:48;3.73;;;1.90;;
41436;SDS011;27178;49.460;10.850;2023-02-01T08:36:18;2.53;;;2.00;;
41436;SDS011;27178;49.460;10.850;2023-02-01T08:38:48;1.97;;;1.63;;
41436;SDS011;27178;49.460;10.850;2023-02-01T08:41:18;2.77;;;1.67;;
41436;SDS011;27178;49.460;10.850;2023-02-01T08:43:47;6.10;;;2.07;;
41436;SDS011;27178;49.460;10.850;2023-02-01T08:46:16;3.57;;;1.90;;
41436;SDS011;27178;49.460;10.850;2023-02-01T08:48:45;1.73;;;1.57;;
41436;SDS011;27178;49.460;10.850;2023-02-01T08:51:15;2.70;;;1.67;;
41436;SDS011;27178;49.460;10.850;2023-02-01T08:53:45;2.83;;;2.53;;
41436;SDS011;27178;49.460;10.850;2023-02-01T08:56:16;4.93;;;2.37;;
41436;SDS011;27178;49.460;10.850;2023-02-01T08:58:45;3.20;;;2.30;;
41436;SDS011;27178;49.460;10.850;2023-02-01T09:01:15;3.23;;;2.20;;
41436;SDS011;27178;49.460;10.850;2023-02-01T09:03:44;2.73;;;2.50;;
41436;SDS011;27178;49.460;10.850;2023-02-01T09:06:13;3.70;;;2.40;;
41436;SDS011;27178;49.460;10.850;2023-02-01T09:08:43;3.97;;;2.47;;
41436;SDS011;27178;49.460;10.850;2023-02-01T09:11:12;2.80;;;2.10;;
41436;SDS011;27178;49.460;10.850;2023-02-01T09:13:44;3.10;;;1.70;;
41436;SDS011;27178;49.460;10.850;2023-02-01T09:16:12;2.83;;;1.60;;
41436;SDS011;27178;49.460;10.850;2023-02-01T09:18:41;3.60;;;2.20;;
41436;SDS011;27178;49.460;10.850;2023-02-01T09:21:26;1.83;;;1.73;;
41436;SDS011;27178;49.460;10.850;2023-02-01T09:23:55;3.83;;;1.83;;
41436;SDS011;27178;49.460;10.850;2023-02-01T09:26:23;2.23;;;1.70;;
41436;SDS011;27178;49.460;10.850;2023-02-01T09:28:59;4.17;;;1.90;;
41436;SDS011;27178;49.460;10.850;2023-02-01T09:31:28;3.67;;;1.37;;
41436;SDS011;27178;49.460;10.850;2023-02-01T09:33:56;3.50;;;1.70;;
41436;SDS011;27178;49.460;10.850;2023-02-01T09:36:25;1.63;;;1.40;;
41436;SDS011;27178;49.460;10.850;2023-02-01T09:38:56;1.67;;;1.57;;
41436;SDS011;27178;49.460;10.850;2023-02-01T09:41:36;2.53;;;1.33;;
41436;SDS011;27178;49.460;10.850;2023-02-01T09:44:15;2.13;;;1.50;;
41436;SDS011;27178;49.460;10.850;2023-02-01T09:47:04;2.73;;;1.60;;
41436;SDS011;27178;49.460;10.850;2023-02-01T09:49:43;3.03;;;1.50;;
41436;SDS011;27178;49.460;10.850;2023-02-01T09:52:20;2.90;;;2.00;;
41436;SDS011;27178;49.460;10.850;2023-02-01T09:54:54;2.83;;;2.40;;
41436;SDS011;27178;49.460;10.850;2023-02-01T09:57:28;2.53;;;2.33;;
41436;SDS011;27178;49.460;10.850;2023-02-01T10:00:11;5.70;;;2.87;;
41436;SDS011;27178;49.460;10.850;2023-02-01T10:02:45;4.67;;;2.60;;
41436;SDS011;27178;49.460;10.850;2023-02-01T10:05:15;6.40;;;3.07;;
41436;SDS011;27178;49.460;10.850;2023-02-01T10:07:47;4.23;;;2.67;;
41436;SDS011;27178;49.460;10.850;2023-02-01T10:10:26;5.37;;;3.17;;
41436;SDS011;27178;49.460;10.850;2023-02-01T10:16:04;6.67;;;3.60;;
41436;SDS011;27178;49.460;10.850;2023-02-01T10:21:43;3.87;;;2.80;;
41436;SDS011;27178;49.460;10.850;2023-02-01T10:27:15;4.87;;;3.07;;
41436;SDS011;27178;49.460;10.850;2023-02-01T10:29:47;8.50;;;3.20;;
41436;SDS011;27178;49.460;10.850;2023-02-01T10:32:22;5.87;;;3.40;;
41436;SDS011;27178;49.460;10.850;2023-02-01T10:34:52;6.07;;;2.93;;
41436;SDS011;27178;49.460;10.850;2023-02-01T10:37:26;7.50;;;3.20;;
41436;SDS011;27178;49.460;10.850;2023-02-01T10:39:57;4.87;;;3.20;;
41436;SDS011;27178;49.460;10.850;2023-02-01T10:42:28;5.83;;;3.23;;
41436;SDS011;27178;49.460;10.850;2023-02-01T10:44:59;6.20;;;3.40;;
41436;SDS011;27178;49.460;10.850;2023-02-01T10:47:31;8.33;;;3.03;;
41436;SDS011;27178;49.460;10.850;2023-02-01T10:50:02;4.83;;;2.60;;
41436;SDS011;27178;49.460;10.850;2023-02-01T10:52:44;8.50;;;3.73;;
41436;SDS011;27178;49.460;10.850;2023-02-01T10:55:28;6.10;;;3.37;;
41436;SDS011;27178;49.460;10.850;2023-02-01T10:58:00;7.00;;;3.10;;
41436;SDS011;27178;49.460;10.850;2023-02-01T11:00:34;8.20;;;2.80;;
41436;SDS011;27178;49.460;10.850;2023-02-01T11:06:22;8.23;;;3.03;;
41436;SDS011;27178;49.460;10.850;2023-02-01T11:08:55;5.37;;;2.73;;
41436;SDS011;27178;49.460;10.850;2023-02-01T11:11:25;7.27;;;2.87;;
41436;SDS011;27178;49.460;10.850;2023-02-01T11:13:54;5.37;;;2.50;;
41436;SDS011;27178;49.460;10.850;2023-02-01T11:16:33;8.13;;;3.33;;
41436;SDS011;27178;49.460;10.850;2023-02-01T11:19:04;5.47;;;2.67;;
41436;SDS011;27178;49.460;10.850;2023-02-01T11:21:33;11.20;;;3.27;;
41436;SDS011;27178;49.460;10.850;2023-02-01T11:24:04;6.00;;;2.67;;
41436;SDS011;27178;49.460;10.850;2023-02-01T11:26:36;6.13;;;2.73;;
41436;SDS011;27178;49.460;10.850;2023-02-01T11:29:10;4.80;;;2.40;;
41436;SDS011;27178;49.460;10.850;2023-02-01T11:31:41;6.83;;;2.73;;
41436;SDS011;27178;49.460;10.850;2023-02-01T11:34:12;5.43;;;2.77;;
41436;SDS011;27178;49.460;10.850;2023-02-01T11:36:46;5.60;;;2.37;;
41436;SDS011;27178;49.460;10.850;2023-02-01T11:39:21;6.60;;;3.00;;
41436;SDS011;27178;49.460;10.850;2023-02-01T11:42:00;6.30;;;2.97;;
41436;SDS011;27178;49.460;10.850;2023-02-01T11:44:31;8.30;;;4.07;;
41436;SDS011;27178;49.460;10.850;2023-02-01T11:47:16;5.47;;;2.60;;
41436;SDS011;27178;49.460;10.850;2023-02-01T11:49:48;6.10;;;2.87;;
41436;SDS011;27178;49.460;10.850;2023-02-01T11:52:24;6.00;;;2.77;;
41436;SDS011;27178;49.460;10.850;2023-02-01T11:55:20;6.90;;;2.70;;
41436;SDS011;27178;49.460;10.850;2023-02-01T12:01:30;5.20;;;2.30;;
41436;SDS011;27178;49.460;10.850;2023-02-01T12:04:15;5.47;;;2.63;;
41436;SDS011;27178;49.460;10.850;2023-02-01T12:07:14;5.83;;;2.57;;
41436;SDS011;27178;49.460;10.850;2023-02-01T12:12:39;5.30;;;2.53;;
41436;SDS011;27178;49.460;10.850;2023-02-01T12:15:27;4.63;;;2.63;;
41436;SDS011;27178;49.460;10.850;2023-02-01T12:21:19;7.23;;;2.93;;
41436;SDS011;27178;49.460;10.850;2023-02-01T12:24:01;5.53;;;2.60;;
41436;SDS011;27178;49.460;10.850;2023-02-01T12:27:01;7.03;;;2.90;;
41436;SDS011;27178;49.460;10.850;2023-02-01T12:29:47;5.47;;;2.83;;
41436;SDS011;27178;49.460;10.850;2023-02-01T12:35:38;4.97;;;2.73;;
41436;SDS011;27178;49.460;10.850;2023-02-01T12:38:20;7.33;;;2.90;;
41436;SDS011;27178;49.460;10.850;2023-02-01T12:41:19;6.70;;;3.20;;
41436;SDS011;27178;49.460;10.850;2023-02-01T12:44:10;6.73;;;2.83;;
41436;SDS011;27178;49.460;10.850;2023-02-01T12:46:46;3.97;;;2.50;;
41436;SDS011;27178;49.460;10.850;2023-02-01T12:49:19;6.43;;;2.90;;
41436;SDS011;27178;49.460;10.850;2023-02-01T12:51:52;6.37;;;3.23;;
41436;SDS011;27178;49.460;10.850;2023-02-01T12:54:28;5.43;;;2.50;;
41436;SDS011;27178;49.460;10.850;2023-02-01T12:57:04;6.30;;;2.70;;
41436;SDS011;27178;49.460;10.850;2023-02-01T12:59:38;7.03;;;2.70;;
41436;SDS011;27178;49.460;10.850;2023-02-01T13:02:12;6.57;;;2.60;;
41436;SDS011;27178;49.460;10.850;2023-02-01T13:04:47;6.57;;;2.70;;
41436;SDS011;27178;49.460;10.850;2023-02-01T13:07:22;7.20;;;2.87;;
41436;SDS011;27178;49.460;10.850;2023-02-01T13:09:55;10.07;;;2.80;;
41436;SDS011;27178;49.460;10.850;2023-02-01T13:12:34;4.40;;;2.37;;
41436;SDS011;27178;49.460;10.850;2023-02-01T13:15:05;7.07;;;3.10;;
41436;SDS011;27178;49.460;10.850;2023-02-01T13:17:41;4.47;;;2.33;;
41436;SDS011;27178;49.460;10.850;2023-02-01T13:20:15;5.57;;;2.37;;
41436;SDS011;27178;49.460;10.850;2023-02-01T13:22:50;5.60;;;2.67;;
41436;SDS011;27178;49.460;10.850;2023-02-01T13:25:25;5.93;;;2.63;;
41436;SDS011;27178;49.460;10.850;2023-02-01T13:28:00;6.77;;;2.37;;
41436;SDS011;27178;49.460;10.850;2023-02-01T13:30:54;8.53;;;2.90;;
41436;SDS011;27178;49.460;10.850;2023-02-01T13:33:44;5.73;;;2.03;;
41436;SDS011;27178;49.460;10.850;2023-02-01T13:36:30;3.50;;;2.20;;
41436;SDS011;27178;49.460;10.850;2023-02-01T13:39:14;5.23;;;2.30;;
41436;SDS011;27178;49.460;10.850;2023-02-01T13:42:03;6.17;;;2.70;;
41436;SDS011;27178;49.460;10.850;2023-02-01T13:44:42;5.37;;;2.67;;
41436;SDS011;27178;49.460;10.850;2023-02-01T13:47:14;5.63;;;2.47;;
41436;SDS011;27178;49.460;10.850;2023-02-01T13:49:50;5.87;;;2.53;;
41436;SDS011;27178;49.460;10.850;2023-02-01T13:52:26;6.70;;;2.40;;
41436;SDS011;27178;49.460;10.850;2023-02-01T13:58:01;7.50;;;2.63;;
41436;SDS011;27178;49.460;10.850;2023-02-01T14:00:39;5.03;;;2.50;;
41436;SDS011;27178;49.460;10.850;2023-02-01T14:03:10;7.80;;;2.43;;
41436;SDS011;27178;49.460;10.850;2023-02-01T14:05:59;5.93;;;2.30;;
41436;SDS011;27178;49.460;10.850;2023-02-01T14:08:37;8.43;;;2.73;;
41436;SDS011;27178;49.460;10.850;2023-02-01T14:11:10;8.03;;;3.40;;
41436;SDS011;27178;49.460;10.850;2023-02-01T14:23:08;7.63;;;3.00;;
41436;SDS011;27178;49.460;10.850;2023-02-01T14:25:43;10.10;;;3.90;;
41436;SDS011;27178;49.460;10.850;2023-02-01T14:28:21;5.90;;;2.70;;
41436;SDS011;27178;49.460;10.850;2023-02-01T14:30:53;5.90;;;3.57;;
41436;SDS011;27178;49.460;10.850;2023-02-01T14:33:25;6.87;;;3.10;;
41436;SDS011;27178;49.460;10.850;2023-02-01T14:35:57;4.20;;;2.60;;
41436;SDS011;27178;49.460;10.850;2023-02-01T14:38:32;5.30;;;2.87;;
41436;SDS011;27178;49.460;10.850;2023-02-01T14:41:13;4.63;;;2.20;;
41436;SDS011;27178;49.460;10.850;2023-02-01T14:44:14;9.20;;;3.57;;
41436;SDS011;27178;49.460;10.850;2023-02-01T14:47:08;6.00;;;2.40;;
41436;SDS011;27178;49.460;10.850;2023-02-01T14:49:42;12.33;;;3.17;;
41436;SDS011;27178;49.460;10.850;2023-02-01T14:52:17;5.67;;;2.77;;
41436;SDS011;27178;49.460;10.850;2023-02-01T14:54:51;6.90;;;2.87;;
41436;SDS011;27178;49.460;10.850;2023-02-01T14:57:24;5.67;;;2.70;;
41436;SDS011;27178;49.460;10.850;2023-02-01T14:59:59;6.77;;;3.37;;
41436;SDS011;27178;49.460;10.850;2023-02-01T15:02:35;6.17;;;3.00;;
41436;SDS011;27178;49.460;10.850;2023-02-01T15:05:19;4.67;;;2.70;;
41436;SDS011;27178;49.460;10.850;2023-02-01T15:08:04;4.93;;;2.60;;
41436;SDS011;27178;49.460;10.850;2023-02-01T15:10:42;7.57;;;2.90;;
41436;SDS011;27178;49.460;10.850;2023-02-01T15:13:20;9.80;;;3.20;;
41436;SDS011;27178;49.460;10.850;2023-02-01T15:15:59;7.10;;;3.10;;
41436;SDS011;27178;49.460;10.850;2023-02-01T15:18:32;4.47;;;2.60;;
41436;SDS011;27178;49.460;10.850;2023-02-01T15:21:02;9.43;;;3.07;;
41436;SDS011;27178;49.460;10.850;2023-02-01T15:24:06;6.13;;;2.77;;
41436;SDS011;27178;49.460;10.850;2023-02-01T15:26:39;5.07;;;2.30;;
41436;SDS011;27178;49.460;10.850;2023-02-01T15:29:11;6.30;;;2.90;;
41436;SDS011;27178;49.460;10.850;2023-02-01T15:31:41;6.30;;;2.87;;
41436;SDS011;27178;49.460;10.850;2023-02-01T15:34:11;4.90;;;2.90;;
41436;SDS011;27178;49.460;10.850;2023-02-01T15:36:41;5.53;;;2.80;;
41436;SDS011;27178;49.460;10.850;2023-02-01T15:39:27;7.07;;;3.40;;
41436;SDS011;27178;49.460;10.850;2023-02-01T15:41:59;8.43;;;2.93;;
41436;SDS011;27178;49.460;10.850;2023-02-01T15:44:37;8.87;;;3.53;;
41436;SDS011;27178;49.460;10.850;2023-02-01T15:47:10;8.83;;;3.47;;
41436;SDS011;27178;49.460;10.850;2023-02-01T15:49:43;6.30;;;3.03;;
41436;SDS011;27178;49.460;10.850;2023-02-01T15:52:23;6.47;;;2.50;;
41436;SDS011;27178;49.460;10.850;2023-02-01T15:54:55;6.57;;;2.90;;
41436;SDS011;27178;49.460;10.850;2023-02-01T15:57:26;6.00;;;2.70;;